• Join FlightAware (Why Join?)
  • Login
  • US Flag 
08:42PM EDT


 

Airport Tracker/Info


-or-


 

Live Flight TrackerFlight Track Log ✈ EGF3229 ✈ 22-Jun-2013 ✈ KICT - KORD

Flight Track Log - Related Links

Times and Time Zones

All times are in EDT time to prevent confusion due to time zone crossing. See the EGF3229 flight status page for this flight to view local times or setup timezone preferences in your user account.

Time Position Orientation Groundspeed Altitude Reporting Facility
EDT Latitude Longitude Course Direction KTS MPH feet Rate Location/Type
07:31AM 37.6344 -97.4314 21° North 175 201 1,900  Level Kansas City Center
07:32AM 37.6222 -97.4569 239° Southwest 153 176 3,500 2,100 Climbing Kansas City Center
07:33AM 37.6436 -97.4881 311° West 245 282 4,600 1,860 Climbing Kansas City Center
07:34AM 37.9296 -97.3921 North  Level FlightAware Approximate
07:34AM 37.7114 -97.4925 357° North 248 285 6,900  Level Kansas City Center
07:35AM 38.0285 -97.3819 North  Level FlightAware Approximate
07:35AM 37.8044 -97.4656 13° North 281 323 8,600  Level Kansas City Center
07:36AM 38.1273 -97.3695 North  Level FlightAware Approximate
07:36AM 37.8897 -97.4425 12° North 312 359 10,700  Level Kansas City Center
07:37AM 38.2192 -97.3321 21° North  Level FlightAware Approximate
07:37AM 37.9747 -97.4211 11° North 314 361 12,300  Level Kansas City Center
07:38AM 38.0628 -97.3972 12° North 324 373 13,800 1,440 Climbing Kansas City Center
07:39AM 38.1547 -97.3728 12° North 336 387 15,300 1,500 Climbing Kansas City Center
07:40AM 38.2425 -97.3286 22° Northeast 341 392 16,900 1,500 Climbing Kansas City Center
07:41AM 38.3331 -97.2811 22° Northeast 350 403 18,400 1,200 Climbing Kansas City Center
07:42AM 38.4250 -97.2328 22° Northeast 350 403 19,400 960 Climbing Kansas City Center
07:43AM 38.4778 -97.1256 58° Northeast 368 423 20,400 1,020 Climbing Kansas City Center
07:44AM 38.5203 -96.9994 67° East 385 443 21,500 1,020 Climbing Kansas City Center
07:45AM 38.5675 -96.8683 65° Northeast 402 463 22,500 1,020 Climbing Kansas City Center
07:46AM 38.6186 -96.7197 66° East 410 472 23,600 1,080 Climbing Kansas City Center
07:47AM 38.6636 -96.5897 66° East 416 479 24,700 1,380 Climbing Kansas City Center
07:48AM 38.7081 -96.4622 66° East 411 473 26,500 1,980 Climbing Kansas City Center
07:49AM 38.7550 -96.3206 67° East 392 451 28,700 1,560 Climbing Kansas City Center
07:50AM 38.7972 -96.2039 65° Northeast 381 438 29,700 900 Climbing Kansas City Center
07:51AM 38.8389 -96.0800 67° East 390 449 30,600 1,020 Climbing Kansas City Center
07:52AM 38.9403 -95.9847 36° Northeast 413 475 31,800 1,080 Climbing Kansas City Center
07:53AM 39.0483 -95.9428 17° North 420 483 32,800 960 Climbing Kansas City Center
07:54AM 39.1567 -95.8953 19° North 425 489 33,800 1,020 Climbing Kansas City Center
07:55AM 39.2847 -95.8378 19° North 431 496 34,900 540 Climbing Kansas City Center
07:56AM 39.3953 -95.7894 19° North 433 498 35,000  Climbing Kansas City Center
07:57AM 39.5094 -95.7394 19° North 446 513 35,000  Level Kansas City Center
07:58AM 39.6442 -95.6794 19° North 453 521 35,000  Level Kansas City Center
07:59AM 39.7586 -95.6292 19° North 452 520 35,000  Level Kansas City Center
08:00AM 39.8711 -95.5786 19° North 446 513 35,000  Level Kansas City Center
08:01AM 40.0019 -95.5200 19° North 443 510 35,000  Level Kansas City Center
08:02AM 40.1128 -95.4672 20° North 442 509 35,000  Level Kansas City Center
08:03AM 40.2236 -95.4186 19° North 440 506 35,000  Level Kansas City Center
08:04AM 40.3514 -95.3608 19° North 436 502 35,000  Level Kansas City Center
08:05AM 40.4614 -95.3106 19° North 436 502 35,000  Level Kansas City Center
08:06AM 40.5719 -95.2583 20° North 440 506 35,000  Level Kansas City Center
08:07AM 40.7078 -95.1975 19° North 439 505 35,000  Level Minneapolis Center
08:08AM 40.8222 -95.1450 19° North 438 504 35,000  Level Minneapolis Center
08:09AM 40.9592 -95.0817 19° North 437 503 35,000  Level Minneapolis Center
08:10AM 41.0733 -95.0289 19° North 436 502 35,000  Level Minneapolis Center
08:11AM 41.1867 -94.9753 20° North 435 501 35,000  Level Minneapolis Center
08:12AM 41.2989 -94.9244 19° North 432 497 35,000  Level Minneapolis Center
08:14AM 41.4083 -94.8631 23° Northeast 429 494 35,000  Level Minneapolis Center
08:15AM 41.5061 -94.7728 35° Northeast 430 495 35,000  Level Minneapolis Center
08:16AM 41.6033 -94.6817 35° Northeast 428 493 35,000  Level Minneapolis Center
08:17AM 41.7036 -94.5911 34° Northeast 433 498 35,000  Level Minneapolis Center
08:18AM 41.8000 -94.5014 35° Northeast 425 489 35,000  Level Minneapolis Center
08:19AM 41.8989 -94.4103 34° Northeast 431 496 35,000  Level Minneapolis Center
08:20AM 42.0267 -94.2683 40° Northeast 429 494 35,000  Level Minneapolis Center
08:21AM 42.0583 -94.1178 74° East 424 488 35,000 -600 Level Minneapolis Center
08:22AM 42.0300 -93.9656 104° East 418 481 33,900 -1,020 Descending Minneapolis Center
08:23AM 42.0019 -93.8328 106° East 432 497 33,000 -480 Descending Minneapolis Center
08:24AM 41.9422 -93.6847 118° Southeast 427 491 33,000  Level Minneapolis Center
08:25AM 41.8725 -93.5608 127° Southeast 421 484 33,000  Level Minneapolis Center
08:26AM 41.8028 -93.4364 127° Southeast 420 483 33,000  Level Minneapolis Center
08:27AM 41.7222 -93.2853 126° Southeast 419 482 33,000  Level Minneapolis Center
08:28AM 41.6667 -93.1519 119° Southeast 415 478 33,000  Level Minneapolis Center
08:29AM 41.6236 -93.0425 118° Southeast 415 478 33,000  Level Minneapolis Center
08:30AM 41.5653 -92.8775 115° Southeast 414 476 33,000  Level Minneapolis Center
08:31AM 41.5231 -92.7350 112° Southeast 413 475 33,000  Level Minneapolis Center
08:32AM 41.5158 -92.5794 93° East 419 482 33,000  Level Minneapolis Center
08:33AM 41.5436 -92.4261 76° East 434 499 33,000  Level Minneapolis Center
08:34AM 41.5917 -92.2836 66° East 430 495 33,000  Level Minneapolis Center
08:35AM 41.6494 -92.1111 66° East 427 491 33,000  Level Minneapolis Center
08:36AM 41.6886 -91.9886 67° East 423 487 33,000  Level Minneapolis Center
08:37AM 41.7411 -91.8167 68° East 421 484 33,000  Level Minneapolis Center
08:38AM 41.7828 -91.6936 66° East 418 481 33,000  Level Minneapolis Center
08:39AM 41.8031 -91.4942 82° East 412 474 33,000 -360 Level Chicago Center
08:40AM 41.8194 -91.3397 82° East 421 484 32,200 -840 Descending Chicago Center
08:41AM 41.8361 -91.1831 82° East 428 493 31,400 -600 Descending Chicago Center
08:42AM 41.8525 -91.0239 82° East 435 501 31,000 -240 Descending Chicago Center
08:44AM 41.9044 -90.8511 68° East 431 496 31,000  Level Chicago Center
08:45AM 41.9592 -90.7075 63° Northeast 434 499 31,000  Level Chicago Center
08:46AM 42.0139 -90.5650 63° Northeast 435 501 31,000  Level Chicago Center
08:47AM 42.0681 -90.4197 63° Northeast 438 504 31,000 -360 Level Chicago Center
08:48AM 42.1256 -90.2722 62° Northeast 447 514 30,300 -1,320 Descending Chicago Center
08:49AM 42.1822 -90.1208 63° Northeast 457 526 28,400 -2,100 Descending Chicago Center
08:50AM 42.2519 -89.9358 63° Northeast 466 536 26,000 -2,100 Descending Chicago Center
08:51AM 42.3097 -89.7833 63° Northeast 471 542 24,200 -1,680 Descending Chicago Center
08:52AM 42.3253 -89.6100 83° East 464 534 22,600 -1,620 Descending Chicago Center
08:53AM 42.3317 -89.4367 87° East 458 527 20,900 -1,860 Descending Chicago Center
08:54AM 42.3400 -89.2736 86° East 441 507 18,900 -2,100 Descending Chicago Center
08:55AM 42.3489 -89.0867 86° East 430 495 16,700 -2,100 Descending Chicago Center
08:56AM 42.3564 -88.9325 86° East 417 480 14,700 -1,980 Descending Chicago Center
08:57AM 42.3625 -88.7792 87° East 410 472 12,700 -1,920 Descending Chicago Center
08:58AM 42.3697 -88.6303 86° East 403 464 10,800 -1,320 Descending Chicago Center
08:59AM 42.3725 -88.4861 88° East 393 452 10,000 -420 Descending Chicago Center
09:00AM 42.3283 -88.3619 116° Southeast 373 429 10,000  Level Chicago Center
09:01AM 42.2614 -88.2556 130° Southeast 374 430 10,000  Level Chicago Center
09:02AM 42.1947 -88.1478 130° Southeast 375 432 10,000 -180 Level Chicago Center
09:03AM 42.1094 -88.0464 139° Southeast 334 384 9,700 -1,200 Descending Chicago Center
09:04AM 42.0897 -87.9414 104° East 302 348 7,600 -1,320 Descending Chicago Center
09:05AM 42.0922 -87.8269 88° East 305 351 7,000 -900 Descending Chicago Center
09:06AM 42.0911 -87.7167 91° East 299 344 5,800 -1,080 Descending Chicago Center
09:07AM 42.0922 -87.6186 89° East 276 318 4,800 -900 Descending Chicago Center
09:08AM 42.0878 -87.5303 94° East 251 289 4,000 -480 Descending Chicago Center
09:09AM 42.0286 -87.5108 166° South 228 262 3,900  Descending Chicago Center
09:10AM 41.9831 -87.5514 213° Southwest 195 224 4,000  Climbing Chicago Center
09:11AM 41.9828 -87.6222 270° West 192 221 4,000  Level Chicago Center